首页
METAR-TAF:

METAR-TAF

机场 :

重庆江北国际机场

重庆, 中华人民共和国

纬度: 29-31N, 经度: 106-29E, 海拔: 351米

当前天气观测

该预报发布于30分钟前的15:00 UTC
风速12节,风向西
温度 28°C
湿度 74%
气压 1007 hPa
能见度10公里或以上
1500米以下无云,无积雨云

METAR: ZUCK 161500Z 28006MPS CAVOK 28/23 Q1007 NOSIG

时间: 23:30 (15:30 UTC)

预报

该预报发布于6小时和11分钟前的09:19 UTC
预报有效从16日的 12点(UTC)到 17日的 12点(UTC)
风速8节,风向东转东北
能見度: 6000
散云层高于3000英尺
成为
从 16日的 21点(UTC)到 16日的 22点(UTC)
能見度: 4000
散云层高于3000英尺
少量云层高于3000英尺, 积雨云.
小阵雨, 轻雾
短暂存在
从 16日的 22点(UTC)到 17日的 02点(UTC)
雷暴, 雨

TAF: ZUCK 160919Z 1612/1712 06004MPS 6000 SCT030 TX33/1708Z TN25/1621Z BECMG 1621/1622 4000 -SHRA BR SCT030 FEW030CB TEMPO 1622/1702 TSRA

超过4000个机场的气象观测和天气预报(METAR&TAF报告)。

可查询的气象台以黄色和红色小点在地图上表示。

将鼠标移到小点上方,可查看气象台名称。

然后点击查看天气观测和预报。

如需切换地图:点击带黑十字的绿色按钮放大地图;点击带横线的绿色按钮缩小地图;或者点击绿色箭头查看邻近地区的地图。


METAR-TAF: